РПИ Душанбе

 

Руководитель РПИ

Evgeny Vygornitsky*

Инструкторы РПИ
Evgeny Vygornitsky (Supervisor)
Sergey Balandin (Senior Instructor)
Vitaliy Alekseyev (Instructor)
Входит в состав
ЗЦ Центральная Азия

Диспетчеры РПИ

Диспетчер Рейтинг Допуски *

Аэропорты РПИ

ICAO Город Название Погода
UTDD Душанбе Душанбе UTDD 161800Z VRB02MPS 9999 SCT066CB BKN100 OVC120 10/04 Q1013 R09/29//50 NOSIG RMK QFE691/0922
UTDL Худжанд Худжанд UTDL 161800Z 11003MPS 7000 FEW066CB OVC086 10/04 Q1012 R26/CLRD70 NOSIG RMK QFE721/0962